Haci Suvari — TCAY4 — position and weather

sailwx.info

Track history (hours):
 
Tides and Currents Weather Stations Pressure Air Temp Water Temp Dewpoint Dewpoint Depression Visibility Wind Speed Wind Dir Waves Ship Positions

Haci Suvari

Last reported at 2017-Oct-17 17:52 UTC. Time now 2017-Oct-18 11:22 UTC.
Position N 40°45' E 029°21'.

Type: Cargo ship. MMSI: 271002246.

Date/timePositionNaut miles runAvg speedWind from/ knotsBaromVisibWave heightAir tempDewpointWater temp
2017-Oct-17 17:52N 40°45' E 029°21'2 6.8
2017-Oct-17 17:30N 40°45' E 029°18'3 7.1
2017-Oct-17 17:00N 40°46' E 029°13'4 6.9
2017-Oct-17 16:29N 40°48' E 029°09'4 6.8
2017-Oct-17 15:54N 40°49' E 029°04'  
2017-Oct-09 20:07N 40°44' E 029°04'2 7.4
2017-Oct-09 19:47N 40°44' E 029°07'3 7.6
2017-Oct-09 19:26N 40°44' E 029°11'3 7.7
2017-Oct-09 19:00N 40°44' E 029°15'4 7.6
2017-Oct-09 18:30N 40°45' E 029°20'  
Track history (hours):
 
Tides and Currents Weather Stations Pressure Air Temp Water Temp Dewpoint Dewpoint Depression Visibility Wind Speed Wind Dir Waves Ship Positions

Haci Suvari

Last reported at 2017-Oct-17 17:52 UTC. Time now 2017-Oct-18 11:22 UTC.
Position N 40°45' E 029°21'.

Type: Cargo ship. MMSI: 271002246.

Date/timePositionNaut miles runAvg speedWind from/ knotsBaromVisibWave heightAir tempDewpointWater temp
2017-Oct-17 17:52N 40°45' E 029°21'2 6.8
2017-Oct-17 17:30N 40°45' E 029°18'3 7.1
2017-Oct-17 17:00N 40°46' E 029°13'4 6.9
2017-Oct-17 16:29N 40°48' E 029°09'4 6.8
2017-Oct-17 15:54N 40°49' E 029°04'  
2017-Oct-09 20:07N 40°44' E 029°04'2 7.4
2017-Oct-09 19:47N 40°44' E 029°07'3 7.6
2017-Oct-09 19:26N 40°44' E 029°11'3 7.7
2017-Oct-09 19:00N 40°44' E 029°15'4 7.6
2017-Oct-09 18:30N 40°45' E 029°20'  

Dump ship's entire track history